Map

Track Data

SID SEASON NUMBER BASIN SUBBASIN NAME ISO_TIME NATURE LAT LON WMO_WIND WMO_PRES WMO_AGENCY TRACK_TYPE DIST2LAND LANDFALL IFLAG USA_AGENCY USA_ATCF_ID USA_LAT USA_LON USA_RECORD USA_STATUS USA_WIND USA_PRES USA_SSHS USA_R34_NE USA_R34_SE USA_R34_SW USA_R34_NW USA_R50_NE USA_R50_SE USA_R50_SW USA_R50_NW USA_R64_NE USA_R64_SE USA_R64_SW USA_R64_NW USA_POCI USA_ROCI USA_RMW USA_EYE TOKYO_LAT TOKYO_LON TOKYO_GRADE TOKYO_WIND TOKYO_PRES TOKYO_R50_DIR TOKYO_R50_LONG TOKYO_R50_SHORT TOKYO_R30_DIR TOKYO_R30_LONG TOKYO_R30_SHORT TOKYO_LAND CMA_LAT CMA_LON CMA_CAT CMA_WIND CMA_PRES HKO_LAT HKO_LON HKO_CAT HKO_WIND HKO_PRES NEWDELHI_LAT NEWDELHI_LON NEWDELHI_GRADE NEWDELHI_WIND NEWDELHI_PRES NEWDELHI_CI NEWDELHI_DP NEWDELHI_POCI REUNION_LAT REUNION_LON REUNION_TYPE REUNION_WIND REUNION_PRES REUNION_TNUM REUNION_CI REUNION_RMW REUNION_R34_NE REUNION_R34_SE REUNION_R34_SW REUNION_R34_NW REUNION_R50_NE REUNION_R50_SE REUNION_R50_SW REUNION_R50_NW REUNION_R64_NE REUNION_R64_SE REUNION_R64_SW REUNION_R64_NW BOM_LAT BOM_LON BOM_TYPE BOM_WIND BOM_PRES BOM_TNUM BOM_CI BOM_RMW BOM_R34_NE BOM_R34_SE BOM_R34_SW BOM_R34_NW BOM_R50_NE BOM_R50_SE BOM_R50_SW BOM_R50_NW BOM_R64_NE BOM_R64_SE BOM_R64_SW BOM_R64_NW BOM_ROCI BOM_POCI BOM_EYE BOM_POS_METHOD BOM_PRES_METHOD NADI_LAT NADI_LON NADI_CAT NADI_WIND NADI_PRES WELLINGTON_LAT WELLINGTON_LON WELLINGTON_WIND WELLINGTON_PRES DS824_LAT DS824_LON DS824_STAGE DS824_WIND DS824_PRES TD9636_LAT TD9636_LON TD9636_STAGE TD9636_WIND TD9636_PRES TD9635_LAT TD9635_LON TD9635_WIND TD9635_PRES TD9635_ROCI NEUMANN_LAT NEUMANN_LON NEUMANN_CLASS NEUMANN_WIND NEUMANN_PRES MLC_LAT MLC_LON MLC_CLASS MLC_WIND MLC_PRES USA_GUST BOM_GUST BOM_GUST_PER REUNION_GUST REUNION_GUST_PER USA_SEAHGT USA_SEARAD_NE USA_SEARAD_SE USA_SEARAD_SW USA_SEARAD_NW STORM_SPEED STORM_DIR
1974017S20150 1974 6 SP EA NOT_NAMED 1974-01-17 00:00:00 TS -19.5000 150.300 spur-merge 180 175 O________OO___ jtwc_sh SH171974 -19.5000 150.300 -1 -19.5000 150.300 TC -19.5000 150.300 2 1 141
1974017S20150 1974 6 SP EA NOT_NAMED 1974-01-17 03:00:00 TS -19.5529 150.346 spur-merge 175 175 P________PP___ SH171974 -19.5575 150.333 -1 -19.5575 150.333 TC -19.5437 150.372 2 1 129
1974017S20150 1974 6 SP EA NOT_NAMED 1974-01-17 06:00:00 TS -19.5933 150.418 spur-merge 184 184 O________OP___ jtwc_sh SH171974 -19.6000 150.400 -1 -19.6000 150.400 TC -19.5799 150.455 2 2 108
1974017S20150 1974 6 SP EA NOT_NAMED 1974-01-17 09:00:00 TS -19.6104 150.538 spur-merge 194 194 P________PP___ SH171974 -19.6150 150.527 -1 -19.6150 150.527 TC -19.6012 150.561 2 3 91
1974017S20150 1974 6 SP EA NOT_NAMED 1974-01-17 12:00:00 TS -19.6000 150.700 spur-merge 213 213 O________OO___ jtwc_sh SH171974 -19.6000 150.700 -1 -19.6000 150.700 TC -19.6000 150.700 2 3 82
1974017S20150 1974 6 SP EA NOT_NAMED 1974-01-17 15:00:00 TS -19.5622 150.888 spur-merge 231 231 P________PP___ SH171974 -19.5575 150.893 -1 -19.5575 150.893 TC -19.5717 150.879 2 4 76
1974017S20150 1974 6 SP EA NOT_NAMED 1974-01-17 18:00:00 TS -19.5076 151.095 spur-merge 255 255 O________OP___ jtwc_sh SH171974 -19.5000 151.100 -1 -19.5000 151.100 TC -19.5227 151.085 2 4 75
1974017S20150 1974 6 SP EA NOT_NAMED 1974-01-17 21:00:00 TS -19.4541 151.304 spur-merge 274 274 P________PP___ SH171974 -19.4500 151.307 -1 -19.4500 151.307 TC -19.4623 151.298 2 4 75
1974017S20150 1974 6 SP EA NOT_NAMED 1974-01-17 23:00:00 TS -19.4179 151.438 spur-merge 288 288 P________PP___ SH171974 -19.4167 151.439 -1 -19.4167 151.439 TC -19.4204 151.435 2 4 74
1974017S20150 1974 6 SP EA NOT_NAMED 1974-01-18 00:00:00 TS -19.4000 151.500 spur-merge 298 298 O________OO___ jtwc_sh SH171974 -19.4000 151.500 -1 -19.4000 151.500 TC -19.4000 151.500 2 3 72
1974017S20150 1974 6 SP EA NOT_NAMED 1974-01-18 03:00:00 TS -19.3499 151.654 spur-merge 322 322 P________PP___ SH171974 -19.3500 151.657 -1 -19.3500 151.657 TC -19.3498 151.648 2 3 70
1974017S20150 1974 6 SP EA NOT_NAMED 1974-01-18 05:00:00 TS -19.3166 151.748 spur-merge 322 331 P________PP___ SH171974 -19.3166 151.753 -1 -19.3166 151.753 TC -19.3164 151.739 2 3 69
1974017S20150 1974 6 SP EA NOT_NAMED 1974-01-18 06:00:00 TS -19.2999 151.795 spur-merge 331 331 O________OP___ jtwc_sh SH171974 -19.3000 151.800 -1 -19.3000 151.800 TC -19.2997 151.785 2 3 69
1974017S20150 1974 6 SP EA NOT_NAMED 1974-01-18 08:00:00 TS -19.2665 151.886 spur-merge 341 341 P________PP___ SH171974 -19.2666 151.889 -1 -19.2666 151.889 TC -19.2664 151.879 2 3 69
1974017S20150 1974 6 SP EA NOT_NAMED 1974-01-18 09:00:00 TS -19.2499 151.933 spur-merge 345 345 P________PP___ SH171974 -19.2499 151.935 -1 -19.2499 151.935 TC -19.2498 151.929 2 3 71
1974017S20150 1974 6 SP EA NOT_NAMED 1974-01-18 11:00:00 TS -19.2166 152.039 spur-merge 355 355 P________PP___ SH171974 -19.2166 152.039 -1 -19.2166 152.039 TC -19.2166 152.039 2 3 73
1974017S20150 1974 6 SP EA NOT_NAMED 1974-01-18 12:00:00 TS -19.2000 152.100 spur-merge 364 364 O________OO___ jtwc_sh SH171974 -19.2000 152.100 -1 -19.2000 152.100 TC -19.2000 152.100 2 4 76
1974017S20150 1974 6 SP EA NOT_NAMED 1974-01-18 14:00:00 TS -19.1650 152.255 spur-merge 384 384 P________PP___ SH171974 -19.1667 152.251 -1 -19.1667 152.251 TC -19.1616 152.262 2 5 77
1974017S20150 1974 6 SP EA NOT_NAMED 1974-01-18 15:00:00 TS -19.1474 152.340 spur-merge 388 388 P________PP___ SH171974 -19.1500 152.335 -1 -19.1500 152.335 TC -19.1422 152.350 2 5 78
1974017S20150 1974 6 SP EA NOT_NAMED 1974-01-18 17:00:00 TS -19.1124 152.518 spur-merge 407 407 P________PP___ SH171974 -19.1167 152.511 -1 -19.1167 152.511 TC -19.1038 152.531 2 5 78
1974017S20150 1974 6 SP EA NOT_NAMED 1974-01-18 18:00:00 TS -19.0951 152.608 spur-merge 417 417 O________OP___ jtwc_sh SH171974 -19.1000 152.600 -1 -19.1000 152.600 TC -19.0854 152.623 2 5 78
1974017S20150 1974 6 SP EA NOT_NAMED 1974-01-18 21:00:00 TS -19.0403 152.876 spur-merge 443 443 P________PP___ SH171974 -19.0425 152.873 -1 -19.0425 152.873 TC -19.0359 152.884 2 5 78
1974017S20150 1974 6 SP EA NOT_NAMED 1974-01-18 23:00:00 TS -19.0107 153.034 spur-merge 449 449 P________PP___ SH171974 -19.0110 153.034 -1 -19.0110 153.034 TC -19.0101 153.035 2 4 79
1974017S20150 1974 6 SP EA NOT_NAMED 1974-01-19 00:00:00 TS -19.0000 153.100 spur-merge 454 454 O________OO___ jtwc_sh SH171974 -19.0000 153.100 -1 -19.0000 153.100 TC -19.0000 153.100 2 3 82
1974017S20150 1974 6 SP EA NOT_NAMED 1974-01-19 02:00:00 TS -18.9900 153.192 spur-merge 460 460 P________PP___ SH171974 -18.9920 153.196 -1 -18.9920 153.196 TC -18.9863 153.204 2 2 85
1974017S20150 1974 6 SP EA NOT_NAMED 1974-01-19 03:00:00 TS -18.9887 153.226 spur-merge 460 460 P________PP___ SH171974 -18.9924 153.230 -1 -18.9924 153.230 TC -18.9823 153.245 2 2 90
1974017S20150 1974 6 SP EA NOT_NAMED 1974-01-19 05:00:00 TS -18.9906 153.276 spur-merge 466 466 P________PP___ SH171974 -18.9974 153.280 -1 -18.9974 153.280 TC -18.9792 153.307 2 1 93
1974017S20150 1974 6 SP EA NOT_NAMED 1974-01-19 06:00:00 TS -18.9924 153.296 spur-merge 466 466 O________OP___ jtwc_sh SH171974 -19.0000 153.300 -1 -19.0000 153.300 TC -18.9797 153.330 2 1 93
1974017S20150 1974 6 SP EA NOT_NAMED 1974-01-19 08:00:00 TS -18.9937 153.339 spur-merge 466 466 P________PP___ SH171974 -19.0000 153.347 -1 -19.0000 153.347 TC -18.9840 153.363 2 1 92
1974017S20150 1974 6 SP EA NOT_NAMED 1974-01-19 09:00:00 TS -18.9948 153.356 spur-merge 472 472 P________PP___ SH171974 -19.0000 153.365 -1 -19.0000 153.365 TC -18.9873 153.375 2 1 96
1974017S20150 1974 6 SP EA NOT_NAMED 1974-01-19 11:00:00 TS -18.9980 153.387 spur-merge 472 472 P________PP___ SH171974 -19.0000 153.392 -1 -19.0000 153.392 TC -18.9955 153.393 2 1 98
1974017S20150 1974 6 SP EA NOT_NAMED 1974-01-19 12:00:00 TS -19.0000 153.400 spur-merge 472 472 O________OO___ jtwc_sh SH171974 -19.0000 153.400 -1 -19.0000 153.400 TC -19.0000 153.400 2 0 0
1974017S20150 1974 6 SP EA NOT_NAMED 1974-01-19 14:00:00 TS -18.9865 153.382 spur-merge 472 472 P________P____ SH171974 -19.0000 153.407 -1 -19.0000 153.407 TC 2 1 0
1974017S20150 1974 6 SP EA NOT_NAMED 1974-01-19 15:00:00 TS -18.9799 153.372 spur-merge 472 472 P________P____ SH171974 -19.0000 153.408 -1 -19.0000 153.408 TC 2 0 0
1974017S20150 1974 6 SP EA NOT_NAMED 1974-01-19 17:00:00 TS -18.9733 153.373 spur-merge 472 472 P________P____ SH171974 -19.0000 153.403 -1 -19.0000 153.403 TC 2 0 0
1974017S20150 1974 6 SP EA NOT_NAMED 1974-01-19 18:00:00 TS -18.9755 153.395 spur-merge 472 O________O____ jtwc_sh SH171974 -19.0000 153.400 -1 -19.0000 153.400 TC 2 1 0

Digital Typhoon Data and Search

About IBTrACS Database

This database is a web-friendly format of International Best Track Archive for Climate Stewardship (IBTrACS), a global best track data archive curated by NOAA dating back to 1842.

Updated: 2021-10-21